sensor_id;sensor_type;location;lat;lon;timestamp;P1;durP1;ratioP1;P2;durP2;ratioP2
49900;SDS011;35789;48.414;12.768;2023-05-16T00:00:00;7.9;;;4.6;;
49900;SDS011;35789;48.414;12.768;2023-05-16T00:05:00;7.9;;;4.6;;
49900;SDS011;35789;48.414;12.768;2023-05-16T00:10:00;7.9;;;4.6;;
49900;SDS011;35789;48.414;12.768;2023-05-16T00:15:00;7.9;;;4.6;;
49900;SDS011;35789;48.414;12.768;2023-05-16T00:20:00;8.9;;;4.8;;
49900;SDS011;35789;48.414;12.768;2023-05-16T00:25:00;8.9;;;4.8;;
49900;SDS011;35789;48.414;12.768;2023-05-16T00:30:00;8.9;;;4.8;;
49900;SDS011;35789;48.414;12.768;2023-05-16T00:35:00;8.9;;;4.8;;
49900;SDS011;35789;48.414;12.768;2023-05-16T00:40:00;8.9;;;4.8;;
49900;SDS011;35789;48.414;12.768;2023-05-16T00:45:00;8.9;;;4.8;;
49900;SDS011;35789;48.414;12.768;2023-05-16T00:50:00;7.3;;;4.3;;
49900;SDS011;35789;48.414;12.768;2023-05-16T00:55:01;7.3;;;4.3;;
49900;SDS011;35789;48.414;12.768;2023-05-16T01:00:00;7.3;;;4.3;;
49900;SDS011;35789;48.414;12.768;2023-05-16T01:05:00;7.3;;;4.3;;
49900;SDS011;35789;48.414;12.768;2023-05-16T01:10:01;7.3;;;4.3;;
49900;SDS011;35789;48.414;12.768;2023-05-16T01:15:05;7.3;;;4.3;;
49900;SDS011;35789;48.414;12.768;2023-05-16T01:20:05;8.3;;;4.5;;
49900;SDS011;35789;48.414;12.768;2023-05-16T01:25:05;8.3;;;4.5;;
49900;SDS011;35789;48.414;12.768;2023-05-16T01:30:00;8.3;;;4.5;;
49900;SDS011;35789;48.414;12.768;2023-05-16T01:35:00;8.3;;;4.5;;
49900;SDS011;35789;48.414;12.768;2023-05-16T01:40:05;8.3;;;4.5;;
49900;SDS011;35789;48.414;12.768;2023-05-16T01:45:05;8.3;;;4.5;;
49900;SDS011;35789;48.414;12.768;2023-05-16T01:50:07;9.0;;;4.7;;
49900;SDS011;35789;48.414;12.768;2023-05-16T01:55:01;9.0;;;4.7;;
49900;SDS011;35789;48.414;12.768;2023-05-16T02:00:00;9.0;;;4.7;;
49900;SDS011;35789;48.414;12.768;2023-05-16T02:05:00;9.0;;;4.7;;
49900;SDS011;35789;48.414;12.768;2023-05-16T02:10:00;9.0;;;4.7;;
49900;SDS011;35789;48.414;12.768;2023-05-16T02:15:00;9.0;;;4.7;;
49900;SDS011;35789;48.414;12.768;2023-05-16T02:20:00;12.2;;;4.1;;
49900;SDS011;35789;48.414;12.768;2023-05-16T02:25:01;12.2;;;4.1;;
49900;SDS011;35789;48.414;12.768;2023-05-16T02:30:00;12.2;;;4.1;;
49900;SDS011;35789;48.414;12.768;2023-05-16T02:35:00;12.2;;;4.1;;
49900;SDS011;35789;48.414;12.768;2023-05-16T02:40:00;12.2;;;4.1;;
49900;SDS011;35789;48.414;12.768;2023-05-16T02:45:00;12.2;;;4.1;;
49900;SDS011;35789;48.414;12.768;2023-05-16T02:50:00;7.8;;;4.0;;
49900;SDS011;35789;48.414;12.768;2023-05-16T02:55:00;7.8;;;4.0;;
49900;SDS011;35789;48.414;12.768;2023-05-16T03:00:00;7.8;;;4.0;;
49900;SDS011;35789;48.414;12.768;2023-05-16T03:05:00;7.8;;;4.0;;
49900;SDS011;35789;48.414;12.768;2023-05-16T03:10:00;7.8;;;4.0;;
49900;SDS011;35789;48.414;12.768;2023-05-16T03:15:00;7.8;;;4.0;;
49900;SDS011;35789;48.414;12.768;2023-05-16T03:20:00;8.2;;;3.7;;
49900;SDS011;35789;48.414;12.768;2023-05-16T03:25:00;8.2;;;3.7;;
49900;SDS011;35789;48.414;12.768;2023-05-16T03:30:00;8.2;;;3.7;;
49900;SDS011;35789;48.414;12.768;2023-05-16T03:35:00;8.2;;;3.7;;
49900;SDS011;35789;48.414;12.768;2023-05-16T03:40:00;8.2;;;3.7;;
49900;SDS011;35789;48.414;12.768;2023-05-16T03:45:00;8.2;;;3.7;;
49900;SDS011;35789;48.414;12.768;2023-05-16T03:50:00;8.4;;;4.4;;
49900;SDS011;35789;48.414;12.768;2023-05-16T03:55:00;8.4;;;4.4;;
49900;SDS011;35789;48.414;12.768;2023-05-16T04:00:00;8.4;;;4.4;;
49900;SDS011;35789;48.414;12.768;2023-05-16T04:05:00;8.4;;;4.4;;
49900;SDS011;35789;48.414;12.768;2023-05-16T04:10:00;8.4;;;4.4;;
49900;SDS011;35789;48.414;12.768;2023-05-16T04:15:01;8.4;;;4.4;;
49900;SDS011;35789;48.414;12.768;2023-05-16T04:20:00;10.0;;;4.6;;
49900;SDS011;35789;48.414;12.768;2023-05-16T04:25:00;10.0;;;4.6;;
49900;SDS011;35789;48.414;12.768;2023-05-16T04:30:00;10.0;;;4.6;;
49900;SDS011;35789;48.414;12.768;2023-05-16T04:35:00;10.0;;;4.6;;
49900;SDS011;35789;48.414;12.768;2023-05-16T04:40:00;10.0;;;4.6;;
49900;SDS011;35789;48.414;12.768;2023-05-16T04:45:00;10.0;;;4.6;;
49900;SDS011;35789;48.414;12.768;2023-05-16T04:50:00;9.5;;;4.4;;
49900;SDS011;35789;48.414;12.768;2023-05-16T04:55:00;9.5;;;4.4;;
49900;SDS011;35789;48.414;12.768;2023-05-16T05:00:00;9.5;;;4.4;;
49900;SDS011;35789;48.414;12.768;2023-05-16T05:05:00;9.5;;;4.4;;
49900;SDS011;35789;48.414;12.768;2023-05-16T05:10:00;9.5;;;4.4;;
49900;SDS011;35789;48.414;12.768;2023-05-16T05:15:00;9.5;;;4.4;;
49900;SDS011;35789;48.414;12.768;2023-05-16T05:20:00;11.1;;;5.2;;
49900;SDS011;35789;48.414;12.768;2023-05-16T05:25:00;11.1;;;5.2;;
49900;SDS011;35789;48.414;12.768;2023-05-16T05:30:01;11.1;;;5.2;;
49900;SDS011;35789;48.414;12.768;2023-05-16T05:35:00;11.1;;;5.2;;
49900;SDS011;35789;48.414;12.768;2023-05-16T05:40:00;11.1;;;5.2;;
49900;SDS011;35789;48.414;12.768;2023-05-16T05:45:00;11.1;;;5.2;;
49900;SDS011;35789;48.414;12.768;2023-05-16T05:50:00;9.9;;;5.9;;
49900;SDS011;35789;48.414;12.768;2023-05-16T05:55:00;9.9;;;5.9;;
49900;SDS011;35789;48.414;12.768;2023-05-16T06:00:00;9.9;;;5.9;;
49900;SDS011;35789;48.414;12.768;2023-05-16T06:05:00;9.9;;;5.9;;
49900;SDS011;35789;48.414;12.768;2023-05-16T06:10:00;9.9;;;5.9;;
49900;SDS011;35789;48.414;12.768;2023-05-16T06:15:00;9.9;;;5.9;;
49900;SDS011;35789;48.414;12.768;2023-05-16T06:20:00;13.8;;;8.9;;
49900;SDS011;35789;48.414;12.768;2023-05-16T06:25:00;13.8;;;8.9;;
49900;SDS011;35789;48.414;12.768;2023-05-16T06:30:00;13.8;;;8.9;;
49900;SDS011;35789;48.414;12.768;2023-05-16T06:35:00;13.8;;;8.9;;
49900;SDS011;35789;48.414;12.768;2023-05-16T06:40:00;13.8;;;8.9;;
49900;SDS011;35789;48.414;12.768;2023-05-16T06:45:00;13.8;;;8.9;;
49900;SDS011;35789;48.414;12.768;2023-05-16T06:50:00;16.6;;;10.4;;
49900;SDS011;35789;48.414;12.768;2023-05-16T06:55:00;16.6;;;10.4;;
49900;SDS011;35789;48.414;12.768;2023-05-16T07:00:00;16.6;;;10.4;;
49900;SDS011;35789;48.414;12.768;2023-05-16T07:05:00;16.6;;;10.4;;
49900;SDS011;35789;48.414;12.768;2023-05-16T07:10:00;16.6;;;10.4;;
49900;SDS011;35789;48.414;12.768;2023-05-16T07:15:00;16.6;;;10.4;;
49900;SDS011;35789;48.414;12.768;2023-05-16T07:20:00;16.9;;;11.2;;
49900;SDS011;35789;48.414;12.768;2023-05-16T07:25:00;16.9;;;11.2;;
49900;SDS011;35789;48.414;12.768;2023-05-16T07:30:00;16.9;;;11.2;;
49900;SDS011;35789;48.414;12.768;2023-05-16T07:35:00;16.9;;;11.2;;
49900;SDS011;35789;48.414;12.768;2023-05-16T07:40:00;16.9;;;11.2;;
49900;SDS011;35789;48.414;12.768;2023-05-16T07:45:00;16.9;;;11.2;;
49900;SDS011;35789;48.414;12.768;2023-05-16T07:50:00;15.2;;;10.5;;
49900;SDS011;35789;48.414;12.768;2023-05-16T07:55:00;15.2;;;10.5;;
49900;SDS011;35789;48.414;12.768;2023-05-16T08:00:00;15.2;;;10.5;;
49900;SDS011;35789;48.414;12.768;2023-05-16T08:05:00;15.2;;;10.5;;
49900;SDS011;35789;48.414;12.768;2023-05-16T08:10:00;15.2;;;10.5;;
49900;SDS011;35789;48.414;12.768;2023-05-16T08:15:00;15.2;;;10.5;;
49900;SDS011;35789;48.414;12.768;2023-05-16T08:20:00;17.4;;;11.3;;
49900;SDS011;35789;48.414;12.768;2023-05-16T08:25:00;17.4;;;11.3;;
49900;SDS011;35789;48.414;12.768;2023-05-16T08:30:00;17.4;;;11.3;;
49900;SDS011;35789;48.414;12.768;2023-05-16T08:35:00;17.4;;;11.3;;
49900;SDS011;35789;48.414;12.768;2023-05-16T08:40:00;17.4;;;11.3;;
49900;SDS011;35789;48.414;12.768;2023-05-16T08:45:00;17.4;;;11.3;;
49900;SDS011;35789;48.414;12.768;2023-05-16T08:50:02;17.3;;;10.8;;
49900;SDS011;35789;48.414;12.768;2023-05-16T08:55:02;17.3;;;10.8;;
49900;SDS011;35789;48.414;12.768;2023-05-16T09:00:01;17.3;;;10.8;;
49900;SDS011;35789;48.414;12.768;2023-05-16T09:05:00;17.3;;;10.8;;
49900;SDS011;35789;48.414;12.768;2023-05-16T09:10:00;17.3;;;10.8;;
49900;SDS011;35789;48.414;12.768;2023-05-16T09:15:01;13.5;;;9.4;;
49900;SDS011;35789;48.414;12.768;2023-05-16T09:20:07;13.5;;;9.4;;
49900;SDS011;35789;48.414;12.768;2023-05-16T09:25:00;13.5;;;9.4;;
49900;SDS011;35789;48.414;12.768;2023-05-16T09:30:01;13.5;;;9.4;;
49900;SDS011;35789;48.414;12.768;2023-05-16T09:35:00;13.5;;;9.4;;
49900;SDS011;35789;48.414;12.768;2023-05-16T09:40:02;13.5;;;9.4;;
49900;SDS011;35789;48.414;12.768;2023-05-16T09:45:00;15.0;;;10.5;;
49900;SDS011;35789;48.414;12.768;2023-05-16T09:50:00;15.0;;;10.5;;
49900;SDS011;35789;48.414;12.768;2023-05-16T09:55:01;15.0;;;10.5;;
49900;SDS011;35789;48.414;12.768;2023-05-16T10:00:00;15.0;;;10.5;;
49900;SDS011;35789;48.414;12.768;2023-05-16T10:05:00;15.0;;;10.5;;
49900;SDS011;35789;48.414;12.768;2023-05-16T10:10:04;15.0;;;10.5;;
49900;SDS011;35789;48.414;12.768;2023-05-16T10:15:01;12.9;;;9.3;;
49900;SDS011;35789;48.414;12.768;2023-05-16T10:20:02;12.9;;;9.3;;
49900;SDS011;35789;48.414;12.768;2023-05-16T10:25:07;12.9;;;9.3;;
49900;SDS011;35789;48.414;12.768;2023-05-16T10:30:00;12.9;;;9.3;;
49900;SDS011;35789;48.414;12.768;2023-05-16T10:35:00;12.9;;;9.3;;
49900;SDS011;35789;48.414;12.768;2023-05-16T10:40:01;12.9;;;9.3;;
49900;SDS011;35789;48.414;12.768;2023-05-16T10:45:14;11.7;;;8.1;;
49900;SDS011;35789;48.414;12.768;2023-05-16T10:50:00;11.7;;;8.1;;
49900;SDS011;35789;48.414;12.768;2023-05-16T10:55:02;11.7;;;8.1;;
49900;SDS011;35789;48.414;12.768;2023-05-16T11:00:00;11.7;;;8.1;;
49900;SDS011;35789;48.414;12.768;2023-05-16T11:05:01;11.7;;;8.1;;
49900;SDS011;35789;48.414;12.768;2023-05-16T11:10:03;11.7;;;8.1;;
49900;SDS011;35789;48.414;12.768;2023-05-16T11:15:00;13.6;;;8.4;;
49900;SDS011;35789;48.414;12.768;2023-05-16T11:20:00;13.6;;;8.4;;
49900;SDS011;35789;48.414;12.768;2023-05-16T11:25:02;13.6;;;8.4;;
49900;SDS011;35789;48.414;12.768;2023-05-16T11:30:10;13.6;;;8.4;;
49900;SDS011;35789;48.414;12.768;2023-05-16T11:35:00;13.6;;;8.4;;
49900;SDS011;35789;48.414;12.768;2023-05-16T11:40:01;13.6;;;8.4;;
49900;SDS011;35789;48.414;12.768;2023-05-16T11:45:09;12.9;;;8.0;;
49900;SDS011;35789;48.414;12.768;2023-05-16T11:50:02;12.9;;;8.0;;
49900;SDS011;35789;48.414;12.768;2023-05-16T11:55:00;12.9;;;8.0;;
49900;SDS011;35789;48.414;12.768;2023-05-16T12:00:01;12.9;;;8.0;;
49900;SDS011;35789;48.414;12.768;2023-05-16T12:05:04;12.9;;;8.0;;
49900;SDS011;35789;48.414;12.768;2023-05-16T12:10:04;12.9;;;8.0;;
49900;SDS011;35789;48.414;12.768;2023-05-16T12:15:01;13.3;;;9.1;;
49900;SDS011;35789;48.414;12.768;2023-05-16T12:20:01;13.3;;;9.1;;
49900;SDS011;35789;48.414;12.768;2023-05-16T12:25:20;13.3;;;9.1;;
49900;SDS011;35789;48.414;12.768;2023-05-16T12:30:00;13.3;;;9.1;;
49900;SDS011;35789;48.414;12.768;2023-05-16T12:35:00;13.3;;;9.1;;
49900;SDS011;35789;48.414;12.768;2023-05-16T12:40:00;13.3;;;9.1;;
49900;SDS011;35789;48.414;12.768;2023-05-16T12:45:00;13.2;;;8.6;;
49900;SDS011;35789;48.414;12.768;2023-05-16T12:50:00;13.2;;;8.6;;
49900;SDS011;35789;48.414;12.768;2023-05-16T12:55:00;13.2;;;8.6;;
49900;SDS011;35789;48.414;12.768;2023-05-16T13:00:00;13.2;;;8.6;;
49900;SDS011;35789;48.414;12.768;2023-05-16T13:05:00;13.2;;;8.6;;
49900;SDS011;35789;48.414;12.768;2023-05-16T13:10:00;13.2;;;8.6;;
49900;SDS011;35789;48.414;12.768;2023-05-16T13:15:00;29.0;;;7.8;;
49900;SDS011;35789;48.414;12.768;2023-05-16T13:20:00;29.0;;;7.8;;
49900;SDS011;35789;48.414;12.768;2023-05-16T13:25:00;29.0;;;7.8;;
49900;SDS011;35789;48.414;12.768;2023-05-16T13:30:00;29.0;;;7.8;;
49900;SDS011;35789;48.414;12.768;2023-05-16T13:40:00;29.0;;;7.8;;
49900;SDS011;35789;48.414;12.768;2023-05-16T13:45:00;10.5;;;6.0;;
49900;SDS011;35789;48.414;12.768;2023-05-16T13:50:00;10.5;;;6.0;;
49900;SDS011;35789;48.414;12.768;2023-05-16T13:55:00;10.5;;;6.0;;
49900;SDS011;35789;48.414;12.768;2023-05-16T14:00:00;10.5;;;6.0;;
49900;SDS011;35789;48.414;12.768;2023-05-16T14:05:00;10.5;;;6.0;;
49900;SDS011;35789;48.414;12.768;2023-05-16T14:10:00;10.5;;;6.0;;
49900;SDS011;35789;48.414;12.768;2023-05-16T14:15:00;8.3;;;5.7;;
49900;SDS011;35789;48.414;12.768;2023-05-16T14:20:00;8.3;;;5.7;;
49900;SDS011;35789;48.414;12.768;2023-05-16T14:25:00;8.3;;;5.7;;
49900;SDS011;35789;48.414;12.768;2023-05-16T14:30:00;8.3;;;5.7;;
49900;SDS011;35789;48.414;12.768;2023-05-16T14:35:00;8.3;;;5.7;;
49900;SDS011;35789;48.414;12.768;2023-05-16T14:40:00;8.3;;;5.7;;
49900;SDS011;35789;48.414;12.768;2023-05-16T14:45:00;9.2;;;6.5;;
49900;SDS011;35789;48.414;12.768;2023-05-16T14:50:00;9.2;;;6.5;;
49900;SDS011;35789;48.414;12.768;2023-05-16T14:55:00;9.2;;;6.5;;
49900;SDS011;35789;48.414;12.768;2023-05-16T15:00:00;9.2;;;6.5;;
49900;SDS011;35789;48.414;12.768;2023-05-16T15:05:00;9.2;;;6.5;;
49900;SDS011;35789;48.414;12.768;2023-05-16T15:10:00;9.2;;;6.5;;
49900;SDS011;35789;48.414;12.768;2023-05-16T15:15:00;7.2;;;4.4;;
49900;SDS011;35789;48.414;12.768;2023-05-16T15:20:00;7.2;;;4.4;;
49900;SDS011;35789;48.414;12.768;2023-05-16T15:25:00;7.2;;;4.4;;
49900;SDS011;35789;48.414;12.768;2023-05-16T15:30:00;7.2;;;4.4;;
49900;SDS011;35789;48.414;12.768;2023-05-16T15:35:00;7.2;;;4.4;;
49900;SDS011;35789;48.414;12.768;2023-05-16T15:40:00;7.2;;;4.4;;
49900;SDS011;35789;48.414;12.768;2023-05-16T15:45:00;8.3;;;5.1;;
49900;SDS011;35789;48.414;12.768;2023-05-16T15:50:00;8.3;;;5.1;;
49900;SDS011;35789;48.414;12.768;2023-05-16T15:55:00;8.3;;;5.1;;
49900;SDS011;35789;48.414;12.768;2023-05-16T16:00:00;8.3;;;5.1;;
49900;SDS011;35789;48.414;12.768;2023-05-16T16:05:00;8.3;;;5.1;;
49900;SDS011;35789;48.414;12.768;2023-05-16T16:10:00;8.3;;;5.1;;
49900;SDS011;35789;48.414;12.768;2023-05-16T16:15:00;11.6;;;7.1;;
49900;SDS011;35789;48.414;12.768;2023-05-16T16:20:00;11.6;;;7.1;;
49900;SDS011;35789;48.414;12.768;2023-05-16T16:25:00;11.6;;;7.1;;
49900;SDS011;35789;48.414;12.768;2023-05-16T16:30:00;11.6;;;7.1;;
49900;SDS011;35789;48.414;12.768;2023-05-16T16:35:00;11.6;;;7.1;;
49900;SDS011;35789;48.414;12.768;2023-05-16T16:40:00;11.6;;;7.1;;
49900;SDS011;35789;48.414;12.768;2023-05-16T16:45:00;14.4;;;9.2;;
49900;SDS011;35789;48.414;12.768;2023-05-16T16:50:00;14.4;;;9.2;;
49900;SDS011;35789;48.414;12.768;2023-05-16T16:55:00;14.4;;;9.2;;
49900;SDS011;35789;48.414;12.768;2023-05-16T17:00:00;14.4;;;9.2;;
49900;SDS011;35789;48.414;12.768;2023-05-16T17:05:00;14.4;;;9.2;;
49900;SDS011;35789;48.414;12.768;2023-05-16T17:10:00;14.4;;;9.2;;
49900;SDS011;35789;48.414;12.768;2023-05-16T17:15:00;15.6;;;9.1;;
49900;SDS011;35789;48.414;12.768;2023-05-16T17:20:00;15.6;;;9.1;;
49900;SDS011;35789;48.414;12.768;2023-05-16T17:25:00;15.6;;;9.1;;
49900;SDS011;35789;48.414;12.768;2023-05-16T17:30:00;15.6;;;9.1;;
49900;SDS011;35789;48.414;12.768;2023-05-16T17:35:00;15.6;;;9.1;;
49900;SDS011;35789;48.414;12.768;2023-05-16T17:40:00;15.6;;;9.1;;
49900;SDS011;35789;48.414;12.768;2023-05-16T17:45:00;14.9;;;9.5;;
49900;SDS011;35789;48.414;12.768;2023-05-16T17:50:00;14.9;;;9.5;;
49900;SDS011;35789;48.414;12.768;2023-05-16T17:55:00;14.9;;;9.5;;
49900;SDS011;35789;48.414;12.768;2023-05-16T18:00:00;14.9;;;9.5;;
49900;SDS011;35789;48.414;12.768;2023-05-16T18:05:00;14.9;;;9.5;;
49900;SDS011;35789;48.414;12.768;2023-05-16T18:10:00;14.9;;;9.5;;
49900;SDS011;35789;48.414;12.768;2023-05-16T18:15:00;13.8;;;7.6;;
49900;SDS011;35789;48.414;12.768;2023-05-16T18:20:00;13.8;;;7.6;;
49900;SDS011;35789;48.414;12.768;2023-05-16T18:25:00;13.8;;;7.6;;
49900;SDS011;35789;48.414;12.768;2023-05-16T18:30:01;13.8;;;7.6;;
49900;SDS011;35789;48.414;12.768;2023-05-16T18:35:00;13.8;;;7.6;;
49900;SDS011;35789;48.414;12.768;2023-05-16T18:40:00;13.8;;;7.6;;
49900;SDS011;35789;48.414;12.768;2023-05-16T18:45:00;14.1;;;8.4;;
49900;SDS011;35789;48.414;12.768;2023-05-16T18:50:00;14.1;;;8.4;;
49900;SDS011;35789;48.414;12.768;2023-05-16T18:55:00;14.1;;;8.4;;
49900;SDS011;35789;48.414;12.768;2023-05-16T19:00:00;14.1;;;8.4;;
49900;SDS011;35789;48.414;12.768;2023-05-16T19:05:00;14.1;;;8.4;;
49900;SDS011;35789;48.414;12.768;2023-05-16T19:10:00;14.1;;;8.4;;
49900;SDS011;35789;48.414;12.768;2023-05-16T19:15:01;19.0;;;10.6;;
49900;SDS011;35789;48.414;12.768;2023-05-16T19:20:00;19.0;;;10.6;;
49900;SDS011;35789;48.414;12.768;2023-05-16T19:25:00;19.0;;;10.6;;
49900;SDS011;35789;48.414;12.768;2023-05-16T19:30:00;19.0;;;10.6;;
49900;SDS011;35789;48.414;12.768;2023-05-16T19:40:00;19.0;;;10.6;;
49900;SDS011;35789;48.414;12.768;2023-05-16T19:45:00;26.7;;;14.3;;
49900;SDS011;35789;48.414;12.768;2023-05-16T19:50:00;26.7;;;14.3;;
49900;SDS011;35789;48.414;12.768;2023-05-16T19:55:00;26.7;;;14.3;;
49900;SDS011;35789;48.414;12.768;2023-05-16T20:00:00;26.7;;;14.3;;
49900;SDS011;35789;48.414;12.768;2023-05-16T20:05:00;26.7;;;14.3;;
49900;SDS011;35789;48.414;12.768;2023-05-16T20:10:00;26.7;;;14.3;;
49900;SDS011;35789;48.414;12.768;2023-05-16T20:15:00;25.5;;;13.7;;
49900;SDS011;35789;48.414;12.768;2023-05-16T20:20:00;25.5;;;13.7;;
49900;SDS011;35789;48.414;12.768;2023-05-16T20:25:00;25.5;;;13.7;;
49900;SDS011;35789;48.414;12.768;2023-05-16T20:30:01;25.5;;;13.7;;
49900;SDS011;35789;48.414;12.768;2023-05-16T20:35:00;25.5;;;13.7;;
49900;SDS011;35789;48.414;12.768;2023-05-16T20:40:00;25.5;;;13.7;;
49900;SDS011;35789;48.414;12.768;2023-05-16T20:45:00;19.1;;;10.6;;
49900;SDS011;35789;48.414;12.768;2023-05-16T20:50:00;19.1;;;10.6;;
49900;SDS011;35789;48.414;12.768;2023-05-16T20:55:00;19.1;;;10.6;;
49900;SDS011;35789;48.414;12.768;2023-05-16T21:00:00;19.1;;;10.6;;
49900;SDS011;35789;48.414;12.768;2023-05-16T21:05:00;19.1;;;10.6;;
49900;SDS011;35789;48.414;12.768;2023-05-16T21:10:00;19.1;;;10.6;;
49900;SDS011;35789;48.414;12.768;2023-05-16T21:15:00;22.3;;;13.9;;
49900;SDS011;35789;48.414;12.768;2023-05-16T21:20:00;22.3;;;13.9;;
49900;SDS011;35789;48.414;12.768;2023-05-16T21:25:00;22.3;;;13.9;;
49900;SDS011;35789;48.414;12.768;2023-05-16T21:30:00;22.3;;;13.9;;
49900;SDS011;35789;48.414;12.768;2023-05-16T21:35:00;22.3;;;13.9;;
49900;SDS011;35789;48.414;12.768;2023-05-16T21:40:00;22.3;;;13.9;;
49900;SDS011;35789;48.414;12.768;2023-05-16T21:45:00;14.8;;;8.6;;
49900;SDS011;35789;48.414;12.768;2023-05-16T21:50:00;14.8;;;8.6;;
49900;SDS011;35789;48.414;12.768;2023-05-16T21:55:00;14.8;;;8.6;;
49900;SDS011;35789;48.414;12.768;2023-05-16T22:00:00;14.8;;;8.6;;
49900;SDS011;35789;48.414;12.768;2023-05-16T22:05:02;14.8;;;8.6;;
49900;SDS011;35789;48.414;12.768;2023-05-16T22:10:01;14.8;;;8.6;;
49900;SDS011;35789;48.414;12.768;2023-05-16T22:15:00;14.3;;;8.5;;
49900;SDS011;35789;48.414;12.768;2023-05-16T22:20:00;14.3;;;8.5;;
49900;SDS011;35789;48.414;12.768;2023-05-16T22:25:00;14.3;;;8.5;;
49900;SDS011;35789;48.414;12.768;2023-05-16T22:30:00;14.3;;;8.5;;
49900;SDS011;35789;48.414;12.768;2023-05-16T22:35:00;14.3;;;8.5;;
49900;SDS011;35789;48.414;12.768;2023-05-16T22:40:00;14.3;;;8.5;;
49900;SDS011;35789;48.414;12.768;2023-05-16T22:45:00;15.9;;;8.5;;
49900;SDS011;35789;48.414;12.768;2023-05-16T22:50:00;15.9;;;8.5;;
49900;SDS011;35789;48.414;12.768;2023-05-16T22:55:00;15.9;;;8.5;;
49900;SDS011;35789;48.414;12.768;2023-05-16T23:00:00;15.9;;;8.5;;
49900;SDS011;35789;48.414;12.768;2023-05-16T23:05:00;15.9;;;8.5;;
49900;SDS011;35789;48.414;12.768;2023-05-16T23:10:00;15.9;;;8.5;;
49900;SDS011;35789;48.414;12.768;2023-05-16T23:15:00;15.2;;;7.8;;
49900;SDS011;35789;48.414;12.768;2023-05-16T23:20:00;15.2;;;7.8;;
49900;SDS011;35789;48.414;12.768;2023-05-16T23:25:00;15.2;;;7.8;;
49900;SDS011;35789;48.414;12.768;2023-05-16T23:30:00;15.2;;;7.8;;
49900;SDS011;35789;48.414;12.768;2023-05-16T23:35:00;15.2;;;7.8;;
49900;SDS011;35789;48.414;12.768;2023-05-16T23:40:00;15.2;;;7.8;;
49900;SDS011;35789;48.414;12.768;2023-05-16T23:45:00;12.3;;;6.9;;
49900;SDS011;35789;48.414;12.768;2023-05-16T23:50:00;12.3;;;6.9;;
49900;SDS011;35789;48.414;12.768;2023-05-16T23:55:00;12.3;;;6.9;;
